Univ Nv las Vegas, Nevada
Current Conditions -  °F | °C
As of 10:56 AM on Tuesday 21 Oct 2014 (Local Time) from KLAS Reporting Station
Few Clouds Few Clouds  
Wind Chill: 80°   Ceiling: Unl
Heat Index: 80°   Visibility: 10mi
Dew Point: 37°   Wind: 16mph
Humidity: 21%   Direction: 170°S
Pressure: 29.86"   Gusts: NA
Location:  36.0857°N, 115.147°W
Report Text: KLAS 211756Z 17014KT 10SM FEW150 27/03 A2986 RMK AO2 SLP089 T02670028 10267 20211 50003
Loading
Personal Weather Stations






























Interactive Weather Map
Tropical Storm Tracking
New forecast layout! Learn more

10-Day Weather Forecast

Advertisements
Track Severe Weather on mobile